createdAt,value
2017-03-15T10:49:56.382Z,335
2017-03-15T10:50:57.041Z,360
2017-03-15T10:51:57.713Z,320
2017-03-15T10:52:58.370Z,300
2017-03-15T10:53:59.013Z,295
2017-03-15T10:54:59.697Z,315
2017-03-15T10:56:00.335Z,365
2017-03-15T10:57:01.011Z,370
2017-03-15T10:58:01.697Z,380
2017-03-15T10:59:02.404Z,365
2017-03-15T11:00:03.073Z,385
2017-03-15T11:01:03.724Z,385
2017-03-15T11:02:04.389Z,375
2017-03-15T11:03:05.048Z,450
2017-03-15T11:04:05.710Z,370
2017-03-15T11:05:06.389Z,315
2017-03-15T11:06:07.056Z,345
2017-03-15T11:07:07.752Z,350
2017-03-15T11:08:08.422Z,305
2017-03-15T11:09:09.090Z,285
2017-03-15T11:10:09.922Z,255
2017-03-15T11:11:10.598Z,270
2017-03-15T11:12:11.260Z,260
2017-03-15T11:13:11.942Z,245
2017-03-15T11:14:12.614Z,270
2017-03-15T11:15:13.279Z,230
2017-03-15T11:16:13.962Z,255
2017-03-15T11:17:14.632Z,245
2017-03-15T11:18:15.294Z,220
2017-03-15T11:19:15.970Z,255
2017-03-15T11:20:16.711Z,255
2017-03-15T11:21:17.359Z,235
2017-03-15T11:22:18.035Z,235
2017-03-15T11:23:18.692Z,220
2017-03-15T11:24:19.384Z,240
2017-03-15T11:25:20.049Z,215
2017-03-15T11:26:20.740Z,240
2017-03-15T11:27:21.399Z,220
2017-03-15T11:28:22.088Z,245
2017-03-15T11:29:22.795Z,240
2017-03-15T11:30:23.484Z,245
2017-03-15T11:31:24.152Z,240
2017-03-15T11:32:24.833Z,240
2017-03-15T11:33:25.491Z,255
2017-03-15T11:34:26.159Z,290
2017-03-15T11:35:26.817Z,260
2017-03-15T11:36:27.500Z,310
2017-03-15T11:37:28.157Z,285
2017-03-15T11:38:28.895Z,255
2017-03-15T11:39:29.557Z,255
2017-03-15T11:40:30.344Z,260
2017-03-15T11:41:30.997Z,250
2017-03-15T11:42:31.656Z,265
2017-03-15T11:43:32.325Z,290
2017-03-15T11:44:32.979Z,330
2017-03-15T11:45:33.654Z,330
2017-03-15T11:46:34.316Z,340
2017-03-15T11:47:34.991Z,340
2017-03-15T11:48:35.658Z,305
2017-03-15T11:49:36.305Z,275
2017-03-15T11:50:37.057Z,265
2017-03-15T11:51:37.699Z,245
2017-03-15T11:52:38.409Z,235
2017-03-15T11:53:39.073Z,245
2017-03-15T11:54:39.747Z,250
2017-03-15T11:55:40.432Z,255
2017-03-15T11:56:41.105Z,300
2017-03-15T11:57:41.743Z,295
2017-03-15T11:58:42.437Z,290
2017-03-15T11:59:43.094Z,335
2017-03-15T12:00:43.749Z,340
2017-03-15T12:01:44.385Z,335
2017-03-15T12:02:45.052Z,325
2017-03-15T12:03:45.705Z,315
2017-03-15T12:04:46.359Z,275
2017-03-15T12:05:47.026Z,260
2017-03-15T12:06:47.723Z,305
2017-03-15T12:07:48.382Z,330
2017-03-15T12:08:49.036Z,295
2017-03-15T12:09:49.725Z,265
2017-03-15T12:10:50.395Z,245
2017-03-15T12:11:51.054Z,240
2017-03-15T12:12:51.747Z,240
2017-03-15T12:13:52.419Z,240
2017-03-15T12:14:53.087Z,250
2017-03-15T12:15:53.780Z,275
2017-03-15T12:16:54.462Z,305
2017-03-15T12:17:55.126Z,340
2017-03-15T12:18:55.779Z,355
2017-03-15T12:19:56.441Z,345
2017-03-15T12:20:57.105Z,345
2017-03-15T12:21:57.760Z,315
2017-03-15T12:22:58.421Z,305
2017-03-15T12:23:59.079Z,330
2017-03-15T12:24:59.739Z,415
2017-03-15T12:26:00.416Z,485
2017-03-15T12:27:01.064Z,495
2017-03-15T12:28:01.729Z,490
2017-03-15T12:29:02.393Z,515
2017-03-15T12:30:03.041Z,510
2017-03-15T12:31:03.694Z,530
2017-03-15T12:32:04.359Z,470
2017-03-15T12:33:05.017Z,415
2017-03-15T12:34:05.681Z,430
2017-03-15T12:35:06.324Z,480
2017-03-15T12:36:07.013Z,485
2017-03-15T12:37:07.679Z,485
2017-03-15T12:38:08.344Z,425
2017-03-15T12:39:08.983Z,355
2017-03-15T12:40:09.648Z,370
2017-03-15T12:41:10.304Z,355
2017-03-15T12:42:10.952Z,335
2017-03-15T12:43:11.609Z,325
2017-03-15T12:44:12.275Z,320
2017-03-15T12:45:12.978Z,315
2017-03-15T12:46:13.634Z,295
2017-03-15T12:47:14.308Z,280
2017-03-15T12:48:14.963Z,240
2017-03-15T12:49:15.640Z,215
2017-03-15T12:50:16.283Z,210
2017-03-15T12:51:16.938Z,225
2017-03-15T12:52:17.593Z,220
2017-03-15T12:53:18.248Z,240
2017-03-15T12:54:18.917Z,245
2017-03-15T12:55:19.569Z,255
2017-03-15T12:56:20.212Z,265
2017-03-15T12:57:20.860Z,245
2017-03-15T12:58:21.530Z,215
2017-03-15T12:59:22.205Z,230
2017-03-15T13:00:22.880Z,255
2017-03-15T13:01:23.557Z,285
2017-03-15T13:02:24.191Z,280
2017-03-15T13:03:24.857Z,285
2017-03-15T13:04:25.530Z,290
2017-03-15T13:05:26.196Z,255
2017-03-15T13:06:26.871Z,265
2017-03-15T13:07:27.550Z,260
2017-03-15T13:08:28.202Z,260
2017-03-15T13:09:28.845Z,255
2017-03-15T13:10:29.521Z,240
2017-03-15T13:11:30.191Z,255
2017-03-15T13:12:30.845Z,255
2017-03-15T13:13:31.479Z,255
2017-03-15T13:14:32.132Z,285
2017-03-15T13:15:32.814Z,315
2017-03-15T13:16:33.473Z,295
2017-03-15T13:17:34.139Z,270
2017-03-15T13:18:34.866Z,255
2017-03-15T13:19:35.531Z,240
2017-03-15T13:20:36.174Z,230
2017-03-15T13:21:36.835Z,225
2017-03-15T13:22:37.490Z,245
2017-03-15T13:23:38.152Z,255
2017-03-15T13:24:38.805Z,245
2017-03-15T13:25:39.468Z,230
2017-03-15T13:26:40.176Z,220
2017-03-15T13:27:40.829Z,205
2017-03-15T13:28:41.492Z,205
2017-03-15T13:29:42.149Z,200
2017-03-15T13:30:42.796Z,190
2017-03-15T13:31:43.467Z,185
2017-03-15T13:32:44.142Z,180
2017-03-15T13:33:44.780Z,180
2017-03-15T13:34:45.438Z,180
2017-03-15T13:35:46.079Z,180
2017-03-15T13:36:46.737Z,200
2017-03-15T13:37:47.401Z,180
2017-03-15T13:38:48.041Z,200
2017-03-15T13:39:48.755Z,190
2017-03-15T13:40:49.429Z,190
2017-03-15T13:41:50.089Z,185
2017-03-15T13:42:50.780Z,185
2017-03-15T13:43:51.434Z,190
2017-03-15T13:44:52.109Z,205
2017-03-15T13:45:52.782Z,205
2017-03-15T13:46:53.465Z,205
2017-03-15T13:47:54.128Z,215
2017-03-15T13:48:54.795Z,220
2017-03-15T13:49:55.468Z,220
2017-03-15T13:50:56.154Z,210
2017-03-15T13:51:56.877Z,205
2017-03-15T13:52:57.547Z,205
2017-03-15T13:53:58.205Z,200
2017-03-15T13:54:58.933Z,205
2017-03-15T13:55:59.589Z,205
2017-03-15T13:57:00.253Z,205
2017-03-15T13:58:00.920Z,200
2017-03-15T13:59:01.577Z,190
2017-03-15T14:00:02.251Z,185
2017-03-15T14:01:02.887Z,200
2017-03-15T14:02:03.546Z,200
2017-03-15T14:03:04.199Z,200
2017-03-15T14:04:04.861Z,205
2017-03-15T14:05:05.534Z,205
2017-03-15T14:06:06.231Z,205
2017-03-15T14:07:06.897Z,210
2017-03-15T14:08:07.552Z,205
2017-03-15T14:09:08.212Z,200
2017-03-15T14:10:08.883Z,200
2017-03-15T14:11:09.545Z,200
2017-03-15T14:12:10.208Z,200
2017-03-15T14:13:10.878Z,200
2017-03-15T14:14:11.548Z,200
2017-03-15T14:15:12.235Z,195
2017-03-15T14:16:12.973Z,200
2017-03-15T14:17:13.644Z,195
2017-03-15T14:18:14.305Z,195
2017-03-15T14:19:15.020Z,195
2017-03-15T14:20:15.664Z,195
2017-03-15T14:21:16.332Z,195
2017-03-15T14:22:16.981Z,195
2017-03-15T14:23:17.671Z,195
2017-03-15T14:24:18.352Z,195
2017-03-15T14:25:19.055Z,190
2017-03-15T14:26:20.334Z,195
2017-03-15T14:27:21.007Z,190
2017-03-15T14:28:21.673Z,190
2017-03-15T14:29:22.319Z,190
2017-03-15T14:30:22.978Z,190
2017-03-15T14:31:23.644Z,190
2017-03-15T14:32:24.335Z,185
2017-03-15T14:33:24.993Z,185
2017-03-15T14:34:25.662Z,185
2017-03-15T14:35:26.338Z,185
2017-03-15T14:36:27.017Z,185
2017-03-15T14:37:27.744Z,190
2017-03-15T14:38:28.398Z,190
2017-03-15T14:39:29.073Z,190
2017-03-15T14:40:29.747Z,185
2017-03-15T14:41:30.437Z,185
2017-03-15T14:42:31.084Z,185
2017-03-15T14:43:31.735Z,190
2017-03-15T14:44:32.399Z,190
2017-03-15T14:45:33.051Z,190
2017-03-15T14:46:33.732Z,190
2017-03-15T14:47:34.391Z,190
2017-03-15T14:48:35.060Z,190
2017-03-15T14:49:35.719Z,185
2017-03-15T14:50:36.375Z,180
2017-03-15T14:51:37.202Z,180
2017-03-15T14:52:37.872Z,175
2017-03-15T14:53:38.537Z,170
2017-03-15T14:54:39.193Z,165
2017-03-15T14:55:39.848Z,165
2017-03-15T14:56:40.514Z,160
2017-03-15T14:57:41.177Z,160
2017-03-15T14:58:41.850Z,160
2017-03-15T14:59:42.523Z,160
2017-03-15T15:00:43.205Z,160
2017-03-15T15:01:43.865Z,155
2017-03-15T15:02:44.540Z,155
2017-03-15T15:03:45.218Z,155
2017-03-15T15:04:45.885Z,155
2017-03-15T15:05:46.541Z,155
2017-03-15T15:06:47.213Z,160
2017-03-15T15:07:47.889Z,160
2017-03-15T15:08:48.573Z,160
2017-03-15T15:09:49.248Z,160
2017-03-15T15:10:49.894Z,160
2017-03-15T15:11:50.591Z,155
2017-03-15T15:12:51.271Z,155
2017-03-15T15:13:51.940Z,155
2017-03-15T15:14:52.603Z,155
2017-03-15T15:15:53.279Z,155
2017-03-15T15:16:53.958Z,155
2017-03-15T15:17:54.621Z,160
2017-03-15T15:18:55.299Z,160
2017-03-15T15:19:55.982Z,160
2017-03-15T15:20:56.644Z,155
2017-03-15T15:21:57.307Z,155
2017-03-15T15:22:57.992Z,155
2017-03-15T15:23:58.661Z,155
2017-03-15T15:24:59.330Z,155
2017-03-15T15:26:00.003Z,155
2017-03-15T15:27:00.678Z,155
2017-03-15T15:28:01.348Z,160
2017-03-15T15:29:02.023Z,155
2017-03-15T15:30:02.691Z,155
2017-03-15T15:31:03.362Z,155
2017-03-15T15:32:04.043Z,155
2017-03-15T15:33:04.701Z,155
2017-03-15T15:34:05.363Z,150
2017-03-15T15:35:06.022Z,150
2017-03-15T15:36:06.681Z,150
2017-03-15T15:37:07.346Z,150
2017-03-15T15:38:08.007Z,150
2017-03-15T15:39:08.691Z,155
2017-03-15T15:40:09.406Z,150
2017-03-15T15:41:10.085Z,150
2017-03-15T15:42:10.746Z,150
2017-03-15T15:43:11.441Z,145
2017-03-15T15:44:12.106Z,150
2017-03-15T15:45:12.769Z,145
2017-03-15T15:46:13.445Z,140
2017-03-15T15:47:14.104Z,140
2017-03-15T15:48:14.776Z,140
2017-03-15T15:49:15.499Z,135
2017-03-15T15:50:16.173Z,135
2017-03-15T15:51:16.855Z,135
2017-03-15T15:52:17.548Z,135
2017-03-15T15:53:18.202Z,135
2017-03-15T15:54:18.864Z,135
2017-03-15T15:55:19.538Z,135
2017-03-15T15:56:20.222Z,135
2017-03-15T15:57:20.938Z,130
2017-03-15T15:58:21.696Z,130
2017-03-15T15:59:22.327Z,125
2017-03-15T16:00:22.987Z,125
2017-03-15T16:01:23.663Z,120
2017-03-15T16:02:24.345Z,125
2017-03-15T16:03:25.047Z,120
2017-03-15T16:04:25.702Z,120
2017-03-15T16:05:26.406Z,120
2017-03-15T16:06:27.089Z,120
2017-03-15T16:07:27.762Z,115
2017-03-15T16:08:28.444Z,115
2017-03-15T16:09:29.113Z,115
2017-03-15T16:10:29.769Z,115
2017-03-15T16:11:30.432Z,110
2017-03-15T16:12:31.086Z,110
2017-03-15T16:13:31.732Z,115
2017-03-15T16:14:32.397Z,115
2017-03-15T16:15:33.050Z,115
2017-03-15T16:16:33.755Z,115
2017-03-15T16:17:34.428Z,110
2017-03-15T16:18:35.090Z,110
2017-03-15T16:19:35.756Z,110
2017-03-15T16:20:36.426Z,110
2017-03-15T16:21:37.082Z,105
2017-03-15T16:22:37.760Z,105
2017-03-15T16:23:38.436Z,100
2017-03-15T16:24:39.096Z,100
2017-03-15T16:25:39.790Z,95
2017-03-15T16:26:40.460Z,95
2017-03-15T16:27:41.108Z,95
2017-03-15T16:28:41.785Z,95
2017-03-15T16:29:42.503Z,95
2017-03-15T16:30:43.189Z,95
2017-03-15T16:31:43.907Z,95
2017-03-15T16:32:44.570Z,95
2017-03-15T16:33:45.240Z,95
2017-03-15T16:34:45.970Z,95
2017-03-15T16:35:46.664Z,95
2017-03-15T16:36:47.317Z,95
2017-03-15T16:37:47.986Z,90
2017-03-15T16:38:48.665Z,90
2017-03-15T16:39:49.360Z,85
2017-03-15T16:40:50.051Z,85
2017-03-15T16:41:50.718Z,85
2017-03-15T16:42:51.410Z,80
2017-03-15T16:43:52.130Z,80
2017-03-15T16:44:52.828Z,75
2017-03-15T16:45:53.491Z,75
2017-03-15T16:46:54.169Z,70
2017-03-15T16:47:54.849Z,70
2017-03-15T16:48:55.529Z,65
2017-03-15T16:49:56.202Z,65
2017-03-15T16:50:56.848Z,60
2017-03-15T16:51:57.517Z,60
2017-03-15T16:52:58.187Z,55
2017-03-15T16:53:58.859Z,55
2017-03-15T16:54:59.516Z,50
2017-03-15T16:56:00.184Z,50
2017-03-15T16:57:00.831Z,45
2017-03-15T16:58:01.503Z,45
2017-03-15T16:59:02.165Z,45
2017-03-15T17:00:02.841Z,40
2017-03-15T17:01:03.499Z,40
2017-03-15T17:02:04.173Z,40
2017-03-15T17:03:04.862Z,35
2017-03-15T17:04:05.523Z,35
2017-03-15T17:05:06.179Z,35
2017-03-15T17:06:06.868Z,30
2017-03-15T17:07:07.533Z,30
2017-03-15T17:08:08.218Z,30
2017-03-15T17:09:08.874Z,25
2017-03-15T17:10:09.568Z,25
2017-03-15T17:11:10.220Z,20
2017-03-15T17:12:10.878Z,20
2017-03-15T17:13:11.614Z,20
2017-03-15T17:14:12.289Z,15
2017-03-15T17:15:12.992Z,15
2017-03-15T17:16:13.645Z,15
2017-03-15T17:17:14.308Z,15
2017-03-15T17:18:14.974Z,10
2017-03-15T17:19:15.620Z,10
2017-03-15T17:20:16.736Z,10
2017-03-15T17:21:17.416Z,10
2017-03-15T17:22:18.075Z,10
2017-03-15T17:23:18.764Z,5
2017-03-15T17:24:19.443Z,5
2017-03-15T17:25:20.117Z,5
2017-03-15T17:26:20.860Z,5
2017-03-15T17:27:21.654Z,5
2017-03-15T17:28:22.690Z,5
2017-03-15T17:29:23.353Z,5
2017-03-15T17:30:24.031Z,5
2017-03-15T17:31:24.803Z,0
2017-03-15T17:32:25.503Z,0
2017-03-15T17:33:26.191Z,0
2017-03-15T17:34:26.839Z,0
2017-03-15T17:35:27.498Z,0
2017-03-15T17:36:28.234Z,0
2017-03-15T17:37:28.894Z,0
2017-03-15T17:38:29.581Z,0
2017-03-15T17:39:30.234Z,0
2017-03-15T17:40:30.897Z,0
2017-03-15T17:41:31.575Z,0
2017-03-15T17:42:32.257Z,0
2017-03-15T17:43:32.927Z,0
2017-03-15T17:44:33.621Z,0
2017-03-15T17:45:34.289Z,0
2017-03-15T17:46:35.082Z,0
2017-03-15T17:47:35.779Z,0
2017-03-15T17:48:36.432Z,0
2017-03-15T17:49:37.118Z,0
2017-03-15T17:50:37.783Z,0
2017-03-15T17:51:38.514Z,0
2017-03-15T17:52:39.190Z,0
2017-03-15T17:53:39.856Z,0
2017-03-15T17:54:40.559Z,0
2017-03-15T17:55:41.235Z,0
2017-03-15T17:56:41.918Z,0
2017-03-15T17:57:42.623Z,0
2017-03-15T17:58:43.326Z,0
2017-03-15T17:59:43.982Z,0
2017-03-15T18:00:44.703Z,0
2017-03-15T18:01:45.457Z,0
2017-03-15T18:02:46.106Z,0
2017-03-15T18:03:46.794Z,0
2017-03-15T18:04:47.437Z,0
2017-03-15T18:05:48.117Z,0
2017-03-15T18:06:48.813Z,0
2017-03-15T18:07:49.494Z,0
2017-03-15T18:08:50.260Z,0
2017-03-15T18:09:50.920Z,0
2017-03-15T18:10:51.578Z,0
2017-03-15T18:11:52.321Z,0
2017-03-15T18:12:53.006Z,0
2017-03-15T18:13:53.672Z,0
2017-03-15T18:14:54.332Z,0
2017-03-15T18:15:54.996Z,0
2017-03-15T18:16:55.686Z,0
2017-03-15T18:17:56.339Z,0
2017-03-15T18:18:57.000Z,0
2017-03-15T18:19:57.674Z,0
2017-03-15T18:20:58.365Z,0
2017-03-15T18:21:59.034Z,0
2017-03-15T18:22:59.948Z,0
2017-03-15T18:24:00.612Z,0
2017-03-15T18:25:01.339Z,0
2017-03-15T18:26:02.014Z,0
2017-03-15T18:27:02.729Z,0
2017-03-15T18:28:03.433Z,0
2017-03-15T18:29:04.102Z,0
2017-03-15T18:30:04.755Z,0
2017-03-15T18:31:05.431Z,0
2017-03-15T18:32:06.204Z,0
2017-03-15T18:33:06.853Z,0
2017-03-15T18:34:07.510Z,0
2017-03-15T18:35:08.188Z,0
2017-03-15T18:36:08.975Z,0
2017-03-15T18:37:09.645Z,0
2017-03-15T18:38:10.308Z,0
2017-03-15T18:39:10.956Z,0
2017-03-15T18:40:11.617Z,0
2017-03-15T18:41:12.275Z,0
2017-03-15T18:42:13.000Z,0
2017-03-15T18:43:13.656Z,0
2017-03-15T18:44:14.299Z,0
2017-03-15T18:45:14.962Z,0
2017-03-15T18:46:15.623Z,0
2017-03-15T18:47:16.288Z,0
2017-03-15T18:48:16.934Z,0
2017-03-15T18:49:17.598Z,0
2017-03-15T18:50:18.310Z,0
2017-03-15T18:51:18.953Z,0
2017-03-15T18:52:19.629Z,0
2017-03-15T18:53:20.298Z,0
2017-03-15T18:54:20.992Z,0
2017-03-15T18:55:21.662Z,0
2017-03-15T18:56:22.334Z,0
2017-03-15T18:57:23.008Z,0
2017-03-15T18:58:23.668Z,0
2017-03-15T18:59:24.322Z,0
2017-03-15T19:00:25.022Z,0
2017-03-15T19:01:25.669Z,0
2017-03-15T19:02:26.319Z,0
2017-03-15T19:03:26.966Z,0
2017-03-15T19:04:27.634Z,0
2017-03-15T19:05:28.285Z,0
2017-03-15T19:06:28.954Z,0
2017-03-15T19:07:29.625Z,0
2017-03-15T19:08:30.273Z,0
2017-03-15T19:09:30.950Z,0
2017-03-15T19:10:31.693Z,0
2017-03-15T19:11:32.364Z,0
2017-03-15T19:12:33.040Z,0
2017-03-15T19:13:34.368Z,0
2017-03-15T19:14:35.021Z,0
2017-03-15T19:15:35.673Z,0
2017-03-15T19:16:36.348Z,0
2017-03-15T19:17:37.274Z,0
2017-03-15T19:18:37.966Z,0
2017-03-15T19:19:38.637Z,0
2017-03-15T19:20:39.289Z,0
2017-03-15T19:21:39.939Z,0
2017-03-15T19:22:40.605Z,0
2017-03-15T19:23:41.370Z,0
2017-03-15T19:24:42.029Z,0
2017-03-15T19:25:42.739Z,0
2017-03-15T19:26:43.406Z,0
2017-03-15T19:27:44.062Z,0
2017-03-15T19:28:44.708Z,0
2017-03-15T19:29:45.364Z,0
2017-03-15T19:30:46.017Z,0
2017-03-15T19:31:46.691Z,0
2017-03-15T19:32:47.383Z,0
2017-03-15T19:33:48.251Z,0
2017-03-15T19:34:48.914Z,0
2017-03-15T19:35:49.568Z,0
2017-03-15T19:36:50.218Z,0
2017-03-15T19:37:50.909Z,0
2017-03-15T19:38:51.559Z,0
2017-03-15T19:39:52.243Z,0
2017-03-15T19:40:52.940Z,0
2017-03-15T19:41:54.175Z,0
2017-03-15T19:42:54.859Z,0
2017-03-15T19:43:55.538Z,0
2017-03-15T19:44:56.193Z,0
2017-03-15T19:45:56.845Z,0
2017-03-15T19:46:57.503Z,0
2017-03-15T19:47:58.168Z,0
2017-03-15T19:48:58.804Z,0
2017-03-15T19:49:59.628Z,0
2017-03-15T19:51:00.309Z,0
2017-03-15T19:52:00.971Z,0
2017-03-15T19:53:01.674Z,0
2017-03-15T19:54:02.322Z,0
2017-03-15T19:55:02.976Z,0
2017-03-15T19:56:03.660Z,0
2017-03-15T19:57:04.349Z,0
2017-03-15T19:58:04.975Z,0
2017-03-15T19:59:05.674Z,0
2017-03-15T20:00:06.337Z,0
2017-03-15T20:01:07.002Z,0
2017-03-15T20:02:07.671Z,0
2017-03-15T20:03:08.462Z,0
2017-03-15T20:04:09.269Z,0
2017-03-15T20:05:09.940Z,0
2017-03-15T20:06:10.687Z,0
2017-03-15T20:07:11.498Z,0
2017-03-15T20:08:12.254Z,0
2017-03-15T20:09:13.037Z,0
2017-03-15T20:10:13.748Z,0
2017-03-15T20:11:14.501Z,0
2017-03-15T20:12:15.306Z,0
2017-03-15T20:13:16.078Z,0
2017-03-15T20:14:16.774Z,0
2017-03-15T20:15:17.603Z,0
2017-03-15T20:16:21.851Z,0
2017-03-15T20:17:19.193Z,0
2017-03-15T20:18:19.943Z,0
2017-03-15T20:19:20.734Z,0
2017-03-15T20:20:21.530Z,0
2017-03-15T20:21:22.247Z,0
2017-03-15T20:22:23.207Z,0
2017-03-15T20:23:23.966Z,0
2017-03-15T20:24:25.065Z,0
2017-03-15T20:25:25.752Z,0
2017-03-15T20:26:26.618Z,0
2017-03-15T20:27:27.535Z,0
2017-03-15T20:28:28.266Z,0
2017-03-15T20:29:29.003Z,0
2017-03-15T20:30:29.685Z,0
2017-03-15T20:31:30.355Z,0
2017-03-15T20:32:31.021Z,0
2017-03-15T20:33:31.698Z,0
2017-03-15T20:34:32.627Z,0
2017-03-15T20:35:33.438Z,0
2017-03-15T20:36:34.198Z,0
2017-03-15T20:37:34.973Z,0
2017-03-15T20:38:35.701Z,0
2017-03-15T20:39:36.458Z,0
2017-03-15T20:40:37.166Z,0
2017-03-15T20:41:38.170Z,0
2017-03-15T20:42:38.852Z,0
2017-03-15T20:43:39.588Z,0
2017-03-15T20:44:40.354Z,0
2017-03-15T20:45:41.034Z,0
2017-03-15T20:46:41.695Z,0
2017-03-15T20:47:42.378Z,0
2017-03-15T20:48:43.054Z,0
2017-03-15T20:49:43.738Z,0
2017-03-15T20:50:44.418Z,0
2017-03-15T20:51:45.080Z,0
2017-03-15T20:52:45.825Z,0
2017-03-15T20:53:46.502Z,0
2017-03-15T20:54:47.190Z,0
2017-03-15T20:55:47.834Z,0
2017-03-15T20:56:48.589Z,0
2017-03-15T20:57:49.251Z,0
2017-03-15T20:58:49.913Z,0
2017-03-15T20:59:50.586Z,0
2017-03-15T21:00:51.280Z,0
2017-03-15T21:01:52.262Z,0
2017-03-15T21:02:52.956Z,0
2017-03-15T21:03:53.695Z,0
2017-03-15T21:04:54.464Z,0
2017-03-15T21:05:55.258Z,0
2017-03-15T21:06:56.015Z,0
2017-03-15T21:07:56.724Z,0
2017-03-15T21:08:57.447Z,0
2017-03-15T21:09:58.179Z,0
2017-03-15T21:10:58.954Z,0
2017-03-15T21:11:59.637Z,0
2017-03-15T21:13:00.323Z,0
2017-03-15T21:14:01.063Z,0
2017-03-15T21:15:01.733Z,0
2017-03-15T21:16:02.592Z,0
2017-03-15T21:17:03.340Z,0
2017-03-15T21:18:04.073Z,0
2017-03-15T21:19:04.734Z,0
2017-03-15T21:20:05.663Z,0
2017-03-15T21:21:06.552Z,0
2017-03-15T21:22:07.405Z,0
2017-03-15T21:23:08.074Z,0
2017-03-15T21:24:08.797Z,0
2017-03-15T21:25:09.551Z,0
2017-03-15T21:26:10.451Z,0
2017-03-15T21:27:11.233Z,0
2017-03-15T21:28:12.046Z,0
2017-03-15T21:29:12.712Z,0
2017-03-15T21:30:13.377Z,0
2017-03-15T21:31:14.057Z,0
2017-03-15T21:32:14.731Z,0
2017-03-15T21:33:15.456Z,0
2017-03-15T21:34:16.139Z,0
2017-03-15T21:35:16.835Z,0
2017-03-15T21:36:17.519Z,0
2017-03-15T21:37:18.245Z,0
2017-03-15T21:38:18.919Z,0
2017-03-15T21:39:19.623Z,0
2017-03-15T21:40:20.414Z,0
2017-03-15T21:41:21.104Z,0
2017-03-15T21:42:21.898Z,0
2017-03-15T21:43:22.559Z,0
2017-03-15T21:44:23.236Z,0
2017-03-15T21:45:23.925Z,0
2017-03-15T21:46:24.734Z,0
2017-03-15T21:47:25.486Z,0
2017-03-15T21:48:26.233Z,0
2017-03-15T21:49:26.939Z,0
2017-03-15T21:50:27.624Z,0
2017-03-15T21:51:28.359Z,0
2017-03-15T21:52:29.073Z,0
2017-03-15T21:53:29.790Z,0
2017-03-15T21:54:30.526Z,0
2017-03-15T21:55:31.228Z,0
2017-03-15T21:56:32.128Z,0
2017-03-15T21:57:32.851Z,0
2017-03-15T21:58:33.547Z,0
2017-03-15T21:59:34.403Z,0
2017-03-15T22:00:35.060Z,0
2017-03-15T22:01:35.785Z,0
2017-03-15T22:02:36.572Z,0
2017-03-15T22:03:37.304Z,0
2017-03-15T22:04:38.098Z,0
2017-03-15T22:05:38.790Z,0
2017-03-15T22:06:39.532Z,0
2017-03-15T22:07:40.310Z,0
2017-03-15T22:08:41.022Z,0
2017-03-15T22:09:41.682Z,0
2017-03-15T22:10:42.434Z,0
2017-03-15T22:11:43.159Z,0
2017-03-15T22:12:43.998Z,0
2017-03-15T22:13:44.801Z,0
2017-03-15T22:14:45.512Z,0
2017-03-15T22:15:46.296Z,0
2017-03-15T22:16:46.975Z,0
2017-03-15T22:17:47.664Z,0
2017-03-15T22:18:48.326Z,0
2017-03-15T22:19:49.054Z,0
2017-03-15T22:20:49.672Z,0
2017-03-15T22:21:50.678Z,0
2017-03-15T22:22:51.751Z,0
2017-03-15T22:23:53.038Z,0
2017-03-15T22:24:54.463Z,0
2017-03-15T22:25:55.127Z,0
2017-03-15T22:26:55.815Z,0
2017-03-15T22:27:56.473Z,0
2017-03-15T22:28:57.141Z,0
2017-03-15T22:29:57.811Z,0
2017-03-15T22:30:58.501Z,0
2017-03-15T22:31:59.163Z,0
2017-03-15T22:32:59.832Z,0
2017-03-15T22:34:00.504Z,0
2017-03-15T22:35:01.189Z,0
2017-03-15T22:36:01.855Z,0
2017-03-15T22:37:02.537Z,0
2017-03-15T22:38:03.236Z,0
2017-03-15T22:39:03.911Z,0
2017-03-15T22:40:04.579Z,0
2017-03-15T22:41:05.281Z,0
2017-03-15T22:42:05.962Z,0
2017-03-15T22:43:06.646Z,0
2017-03-15T22:44:07.316Z,0
2017-03-15T22:45:07.984Z,0
2017-03-15T22:46:08.632Z,0
2017-03-15T22:47:09.293Z,0
2017-03-15T22:48:09.985Z,0
2017-03-15T22:49:10.643Z,0
2017-03-15T22:50:11.315Z,0
2017-03-15T22:51:11.981Z,0
2017-03-15T22:52:12.650Z,0
2017-03-15T22:53:13.329Z,0
2017-03-15T22:54:13.996Z,0
2017-03-15T22:55:14.670Z,0
2017-03-15T22:56:15.342Z,0
2017-03-15T22:57:16.016Z,0
2017-03-15T22:58:16.668Z,0
2017-03-15T22:59:17.333Z,0
2017-03-15T23:00:17.990Z,0
2017-03-15T23:01:18.632Z,0
2017-03-15T23:02:19.280Z,0
2017-03-15T23:03:19.959Z,0
2017-03-15T23:04:20.603Z,0
2017-03-15T23:05:21.260Z,0
2017-03-15T23:06:21.927Z,0
2017-03-15T23:07:22.584Z,0
2017-03-15T23:08:23.247Z,0
2017-03-15T23:09:23.899Z,0
2017-03-15T23:10:24.560Z,0
2017-03-15T23:11:25.196Z,0
2017-03-15T23:12:25.860Z,0
2017-03-15T23:13:26.518Z,0
2017-03-15T23:14:27.182Z,0
2017-03-15T23:15:27.859Z,0
2017-03-15T23:16:28.527Z,0
2017-03-15T23:17:29.178Z,0
2017-03-15T23:18:29.819Z,0
2017-03-15T23:19:30.469Z,0
2017-03-15T23:20:31.217Z,0
2017-03-15T23:21:31.881Z,0
2017-03-15T23:22:32.534Z,0
2017-03-15T23:23:33.193Z,0
2017-03-15T23:24:33.855Z,0
2017-03-15T23:25:34.673Z,0
2017-03-15T23:26:35.314Z,0
2017-03-15T23:27:35.965Z,0
2017-03-15T23:28:36.645Z,0
2017-03-15T23:29:37.345Z,0
2017-03-15T23:30:38.019Z,0
2017-03-15T23:31:38.674Z,0
2017-03-15T23:32:39.334Z,0
2017-03-15T23:33:40.030Z,0
2017-03-15T23:34:40.685Z,0
2017-03-15T23:35:41.341Z,0
2017-03-15T23:36:41.993Z,0
2017-03-15T23:37:42.647Z,0
2017-03-15T23:38:43.330Z,0
2017-03-15T23:39:43.999Z,0
2017-03-15T23:40:44.632Z,0
2017-03-15T23:41:45.316Z,0
2017-03-15T23:42:45.979Z,0
2017-03-15T23:43:46.630Z,0
2017-03-15T23:44:47.295Z,0
2017-03-15T23:45:47.945Z,0
2017-03-15T23:46:48.619Z,0
2017-03-15T23:47:49.264Z,0
2017-03-15T23:48:49.942Z,0
2017-03-15T23:49:50.617Z,0
2017-03-15T23:50:51.284Z,0
2017-03-15T23:51:51.943Z,0
2017-03-15T23:52:52.592Z,0
2017-03-15T23:53:53.265Z,0
2017-03-15T23:54:53.927Z,0
2017-03-15T23:55:54.604Z,0
2017-03-15T23:56:55.253Z,0
2017-03-15T23:57:55.947Z,0
2017-03-15T23:58:56.586Z,0
2017-03-15T23:59:57.247Z,0
